createdAt,value
2022-08-11T00:00:43.549Z,21.57
2022-08-11T00:01:43.542Z,21.60
2022-08-11T00:02:43.630Z,21.46
2022-08-11T00:03:44.034Z,21.57
2022-08-11T00:04:43.549Z,21.52
2022-08-11T00:05:43.555Z,21.45
2022-08-11T00:06:43.560Z,21.39
2022-08-11T00:07:43.563Z,21.37
2022-08-11T00:08:43.567Z,21.45
2022-08-11T00:09:43.576Z,21.42
2022-08-11T00:10:43.570Z,21.48
2022-08-11T00:11:43.616Z,21.37
2022-08-11T00:12:43.576Z,21.40
2022-08-11T00:13:43.595Z,21.40
2022-08-11T00:14:43.584Z,21.24
2022-08-11T00:15:43.590Z,21.27
2022-08-11T00:16:43.591Z,21.32
2022-08-11T00:17:43.595Z,21.25
2022-08-11T00:18:43.595Z,21.18
2022-08-11T00:20:15.435Z,21.18
2022-08-11T00:20:43.602Z,21.14
2022-08-11T00:22:02.867Z,21.05
2022-08-11T00:22:43.608Z,21.02
2022-08-11T00:23:43.613Z,20.95
2022-08-11T00:24:54.793Z,20.87
2022-08-11T00:25:43.625Z,20.96
2022-08-11T00:26:43.621Z,20.88
2022-08-11T00:27:43.643Z,20.90
2022-08-11T00:28:43.629Z,20.80
2022-08-11T00:29:51.638Z,20.75
2022-08-11T00:30:43.634Z,20.74
2022-08-11T00:31:43.639Z,20.59
2022-08-11T00:32:43.640Z,20.59
2022-08-11T00:33:44.737Z,20.66
2022-08-11T00:34:43.646Z,20.58
2022-08-11T00:35:54.594Z,20.50
2022-08-11T00:36:43.656Z,20.48
2022-08-11T00:37:43.680Z,20.44
2022-08-11T00:38:43.674Z,20.47
2022-08-11T00:39:43.723Z,20.40
2022-08-11T00:40:43.668Z,20.39
2022-08-11T00:41:43.668Z,20.34
2022-08-11T00:42:43.673Z,20.29
2022-08-11T00:43:43.675Z,20.31
2022-08-11T00:44:43.683Z,20.25
2022-08-11T00:45:43.683Z,20.24
2022-08-11T00:46:43.679Z,20.16
2022-08-11T00:47:43.684Z,20.07
2022-08-11T00:48:43.687Z,19.99
2022-08-11T00:49:43.701Z,19.88
2022-08-11T00:50:43.696Z,19.81
2022-08-11T00:51:59.678Z,19.82
2022-08-11T00:52:43.703Z,19.73
2022-08-11T00:53:43.710Z,19.67
2022-08-11T00:54:43.700Z,19.71
2022-08-11T00:55:47.297Z,19.77
2022-08-11T00:56:43.708Z,19.69
2022-08-11T00:57:43.710Z,19.74
2022-08-11T00:58:43.713Z,19.63
2022-08-11T00:59:43.715Z,19.67
2022-08-11T01:00:43.778Z,19.51
2022-08-11T01:01:43.722Z,19.58
2022-08-11T01:02:43.731Z,19.54
2022-08-11T01:03:43.727Z,19.49
2022-08-11T01:04:43.736Z,19.51
2022-08-11T01:05:43.734Z,19.45
2022-08-11T01:06:43.736Z,19.48
2022-08-11T01:08:01.189Z,19.51
2022-08-11T01:08:43.742Z,19.47
2022-08-11T01:09:43.742Z,19.56
2022-08-11T01:10:43.745Z,19.45
2022-08-11T01:11:56.013Z,19.49
2022-08-11T01:12:43.752Z,19.49
2022-08-11T01:13:43.755Z,19.45
2022-08-11T01:14:43.760Z,19.48
2022-08-11T01:15:43.754Z,19.44
2022-08-11T01:16:43.763Z,19.44
2022-08-11T01:17:43.762Z,19.40
2022-08-11T01:18:43.764Z,19.47
2022-08-11T01:20:45.044Z,19.44
2022-08-11T01:20:48.703Z,19.41
2022-08-11T01:21:43.771Z,19.37
2022-08-11T01:22:43.773Z,19.34
2022-08-11T01:23:43.775Z,19.34
2022-08-11T01:24:43.783Z,19.29
2022-08-11T01:25:57.245Z,19.29
2022-08-11T01:26:43.785Z,19.19
2022-08-11T01:27:43.785Z,19.16
2022-08-11T01:28:43.787Z,19.21
2022-08-11T01:29:49.197Z,19.09
2022-08-11T01:30:43.793Z,19.12
2022-08-11T01:31:43.799Z,19.18
2022-08-11T01:32:43.801Z,19.19
2022-08-11T01:33:43.800Z,19.14
2022-08-11T01:34:43.800Z,19.12
2022-08-11T01:35:43.804Z,19.16
2022-08-11T01:36:43.807Z,19.15
2022-08-11T01:37:43.808Z,19.11
2022-08-11T01:38:43.811Z,19.18
2022-08-11T01:39:43.840Z,19.15
2022-08-11T01:40:43.814Z,19.19
2022-08-11T01:41:43.820Z,19.26
2022-08-11T01:42:43.824Z,19.26
2022-08-11T01:43:43.821Z,19.21
2022-08-11T01:44:43.829Z,19.36
2022-08-11T01:45:43.824Z,19.36
2022-08-11T01:46:43.832Z,19.36
2022-08-11T01:47:52.942Z,19.47
2022-08-11T01:48:43.831Z,19.44
2022-08-11T01:50:10.042Z,19.44
2022-08-11T01:50:43.840Z,19.55
2022-08-11T01:51:45.336Z,19.54
2022-08-11T01:52:44.141Z,19.58
2022-08-11T01:53:43.849Z,19.52
2022-08-11T01:54:43.848Z,19.56
2022-08-11T01:55:43.854Z,19.52
2022-08-11T01:56:43.853Z,19.56
2022-08-11T01:57:43.852Z,19.63
2022-08-11T01:58:44.501Z,19.48
2022-08-11T01:59:43.860Z,19.45
2022-08-11T02:00:43.923Z,19.41
2022-08-11T02:01:43.863Z,19.34
2022-08-11T02:02:43.864Z,19.40
2022-08-11T02:03:43.874Z,19.37
2022-08-11T02:04:43.875Z,19.29
2022-08-11T02:05:43.871Z,19.30
2022-08-11T02:06:43.882Z,19.30
2022-08-11T02:07:43.876Z,19.22
2022-08-11T02:08:44.795Z,19.15
2022-08-11T02:09:49.465Z,19.16
2022-08-11T02:10:50.339Z,19.12
2022-08-11T02:11:43.886Z,19.15
2022-08-11T02:12:51.211Z,19.11
2022-08-11T02:13:44.719Z,19.08
2022-08-11T02:15:04.605Z,19.11
2022-08-11T02:15:43.897Z,19.18
2022-08-11T02:16:43.896Z,19.18
2022-08-11T02:17:44.399Z,19.21
2022-08-11T02:18:43.898Z,19.11
2022-08-11T02:19:44.233Z,19.15
2022-08-11T02:20:43.904Z,19.19
2022-08-11T02:21:43.908Z,19.14
2022-08-11T02:22:43.910Z,19.11
2022-08-11T02:24:06.029Z,18.98
2022-08-11T02:24:43.912Z,19.00
2022-08-11T02:25:43.915Z,19.08
2022-08-11T04:03:31.160Z,16.41
2022-08-11T04:04:27.821Z,16.42
2022-08-11T04:05:27.824Z,16.42
2022-08-11T04:06:27.829Z,16.42
2022-08-11T04:07:27.826Z,16.46
2022-08-11T04:08:33.905Z,16.50
2022-08-11T04:09:27.829Z,16.51
2022-08-11T04:10:27.828Z,16.71
2022-08-11T04:11:27.831Z,16.72
2022-08-11T04:12:36.652Z,16.81
2022-08-11T04:13:27.836Z,16.86
2022-08-11T04:14:27.832Z,16.75
2022-08-11T04:15:27.834Z,16.72
2022-08-11T04:16:27.839Z,16.61
2022-08-11T04:17:27.839Z,16.53
2022-08-11T04:18:27.842Z,16.39
2022-08-11T04:19:27.843Z,16.33
2022-08-11T04:20:27.844Z,16.28
2022-08-11T04:21:27.842Z,16.28
2022-08-11T04:22:27.916Z,16.23
2022-08-11T04:24:33.408Z,16.20
2022-08-11T04:24:37.237Z,16.31
2022-08-11T04:25:27.846Z,16.29
2022-08-11T04:26:27.854Z,16.32
2022-08-11T04:27:36.962Z,16.36
2022-08-11T04:28:28.708Z,16.39
2022-08-11T04:29:35.989Z,16.32
2022-08-11T04:30:27.856Z,16.36
2022-08-11T04:31:51.363Z,16.28
2022-08-11T04:32:27.859Z,16.24
2022-08-11T04:33:27.855Z,16.23
2022-08-11T04:34:27.863Z,16.33
2022-08-11T04:35:27.861Z,16.17
2022-08-11T04:36:27.859Z,16.15
2022-08-11T04:37:27.861Z,16.17
2022-08-11T04:38:27.862Z,16.16
2022-08-11T04:39:27.918Z,16.23
2022-08-11T04:40:27.873Z,16.20
2022-08-11T04:41:27.869Z,16.20
2022-08-11T04:42:31.540Z,16.17
2022-08-11T04:43:27.867Z,16.17
2022-08-11T04:44:27.868Z,16.23
2022-08-11T04:45:27.869Z,16.24
2022-08-11T04:46:27.869Z,16.21
2022-08-11T04:47:27.870Z,16.21
2022-08-11T04:48:27.875Z,16.28
2022-08-11T04:49:34.036Z,16.33
2022-08-11T04:50:27.879Z,16.26
2022-08-11T04:51:27.875Z,16.29
2022-08-11T04:52:37.626Z,16.26
2022-08-11T04:53:27.879Z,16.41
2022-08-11T04:54:28.846Z,16.39
2022-08-11T04:55:27.881Z,16.41
2022-08-11T04:56:27.890Z,16.35
2022-08-11T04:57:27.880Z,16.46
2022-08-11T04:58:29.425Z,16.39
2022-08-11T04:59:27.901Z,16.41
2022-08-11T05:00:27.888Z,16.36
2022-08-11T05:01:27.952Z,16.32
2022-08-11T05:02:27.979Z,16.36
2022-08-11T05:03:27.888Z,16.41
2022-08-11T05:04:27.891Z,16.46
2022-08-11T05:05:27.888Z,16.53
2022-08-11T05:06:27.900Z,16.51
2022-08-11T05:07:27.893Z,16.54
2022-08-11T05:08:27.892Z,16.57
2022-08-11T05:09:27.896Z,16.56
2022-08-11T05:10:27.919Z,16.66
2022-08-11T05:11:27.897Z,16.71
2022-08-11T05:12:28.034Z,16.72
2022-08-11T05:13:27.901Z,16.76
2022-08-11T05:14:27.898Z,16.79
2022-08-11T05:15:27.898Z,16.89
2022-08-11T05:16:27.903Z,16.89
2022-08-11T05:17:27.901Z,16.96
2022-08-11T05:18:27.904Z,16.94
2022-08-11T05:19:27.902Z,16.97
2022-08-11T05:20:27.904Z,17.11
2022-08-11T05:21:27.904Z,17.08
2022-08-11T05:22:27.969Z,17.12
2022-08-11T05:23:27.906Z,17.15
2022-08-11T05:24:27.948Z,17.20
2022-08-11T05:26:42.986Z,17.30
2022-08-11T05:26:47.178Z,17.29
2022-08-11T05:27:27.920Z,17.39
2022-08-11T05:28:27.913Z,17.33
2022-08-11T05:29:27.914Z,17.45
2022-08-11T05:30:27.916Z,17.48
2022-08-11T05:31:27.913Z,17.57
2022-08-11T05:32:27.961Z,17.54
2022-08-11T05:33:27.919Z,17.54
2022-08-11T05:34:27.921Z,17.65
2022-08-11T05:35:59.776Z,17.56
2022-08-11T05:36:27.923Z,17.64
2022-08-11T05:37:27.993Z,17.76
2022-08-11T05:38:27.931Z,17.80
2022-08-11T05:39:36.331Z,17.83
2022-08-11T05:40:27.925Z,17.87
2022-08-11T05:41:27.926Z,17.94
2022-08-11T05:42:30.486Z,17.94
2022-08-11T05:43:27.926Z,17.92
2022-08-11T05:44:27.931Z,18.07
2022-08-11T05:45:27.928Z,17.98
2022-08-11T05:46:27.932Z,18.15
2022-08-11T05:47:27.938Z,18.07
2022-08-11T05:48:27.945Z,18.13
2022-08-11T05:49:27.949Z,18.13
2022-08-11T05:50:31.184Z,18.26
2022-08-11T05:51:30.190Z,18.31
2022-08-11T05:52:32.040Z,18.23
2022-08-11T05:53:27.940Z,18.31
2022-08-11T05:54:29.538Z,18.37
2022-08-11T05:55:27.943Z,18.45
2022-08-11T05:56:27.944Z,18.50
2022-08-11T05:57:49.074Z,18.49
2022-08-11T05:58:27.986Z,18.50
2022-08-11T05:59:27.948Z,18.58
2022-08-11T06:00:27.964Z,18.62
2022-08-11T06:01:28.011Z,18.60
2022-08-11T06:02:27.961Z,18.66
2022-08-11T06:03:27.955Z,18.70
2022-08-11T06:04:27.952Z,18.74
2022-08-11T06:05:27.953Z,18.77
2022-08-11T06:06:27.956Z,18.80
2022-08-11T06:07:27.957Z,18.80
2022-08-11T06:08:27.961Z,18.83
2022-08-11T06:09:27.958Z,18.74
2022-08-11T06:10:27.962Z,18.88
2022-08-11T06:11:44.444Z,18.84
2022-08-11T06:12:27.969Z,18.96
2022-08-11T06:13:27.966Z,18.93
2022-08-11T06:14:27.974Z,18.92
2022-08-11T06:15:27.969Z,19.09
2022-08-11T06:16:27.975Z,19.07
2022-08-11T06:17:38.802Z,19.08
2022-08-11T06:18:27.980Z,19.14
2022-08-11T06:19:27.972Z,19.08
2022-08-11T06:20:27.986Z,19.12
2022-08-11T06:21:27.974Z,19.12
2022-08-11T06:22:28.050Z,19.15
2022-08-11T06:23:27.980Z,19.22
2022-08-11T06:24:27.980Z,19.29
2022-08-11T06:25:27.983Z,19.22
2022-08-11T06:26:27.989Z,19.26
2022-08-11T06:27:27.985Z,19.27
2022-08-11T06:28:27.987Z,19.37
2022-08-11T06:29:37.965Z,19.33
2022-08-11T06:30:27.999Z,19.44
2022-08-11T06:31:27.990Z,19.36
2022-08-11T06:32:27.992Z,19.44
2022-08-11T06:33:27.995Z,19.41
2022-08-11T06:34:27.995Z,19.40
2022-08-11T06:35:27.994Z,19.34
2022-08-11T06:36:28.009Z,19.49
2022-08-11T06:37:28.003Z,19.55
2022-08-11T06:38:28.004Z,19.47
2022-08-11T06:39:28.121Z,19.51
2022-08-11T06:40:28.006Z,19.51
2022-08-11T06:41:28.006Z,19.58
2022-08-11T06:42:28.130Z,19.56
2022-08-11T06:43:28.012Z,19.55
2022-08-11T06:44:28.012Z,19.59
2022-08-11T06:45:28.011Z,19.54
2022-08-11T06:46:28.430Z,19.67
2022-08-11T06:47:28.019Z,19.63
2022-08-11T06:48:28.020Z,19.70
2022-08-11T06:49:28.018Z,19.74
2022-08-11T06:50:28.031Z,19.81
2022-08-11T06:51:28.021Z,19.79
2022-08-11T06:52:34.974Z,19.85
2022-08-11T06:53:28.026Z,19.85
2022-08-11T06:54:28.026Z,19.82
2022-08-11T06:55:57.535Z,19.95
2022-08-11T06:56:28.035Z,19.95
2022-08-11T06:57:30.718Z,19.99
2022-08-11T06:58:28.044Z,20.11
2022-08-11T06:59:28.040Z,20.16
2022-08-11T07:00:28.073Z,20.19
2022-08-11T07:01:28.119Z,20.19
2022-08-11T07:02:31.236Z,20.22
2022-08-11T07:03:28.044Z,20.29
2022-08-11T07:04:28.058Z,20.21
2022-08-11T07:05:28.047Z,20.31
2022-08-11T07:06:28.049Z,20.32
2022-08-11T07:07:28.051Z,20.39
2022-08-11T07:08:34.641Z,20.41
2022-08-11T07:09:28.061Z,20.43
2022-08-11T07:10:28.059Z,20.47
2022-08-11T07:11:28.059Z,20.47
2022-08-11T07:12:28.069Z,20.55
2022-08-11T07:13:44.263Z,20.59
2022-08-11T07:14:28.071Z,20.62
2022-08-11T07:16:11.498Z,20.67
2022-08-11T07:16:28.074Z,20.60
2022-08-11T07:17:28.075Z,20.66
2022-08-11T07:18:28.426Z,20.69
2022-08-11T07:19:28.082Z,20.75
2022-08-11T07:20:28.082Z,20.81
2022-08-11T07:22:00.508Z,20.85
2022-08-11T07:22:28.094Z,20.92
2022-08-11T07:23:28.094Z,20.99
2022-08-11T07:24:34.556Z,20.99
2022-08-11T07:25:28.095Z,21.00
2022-08-11T07:26:28.098Z,21.06
2022-08-11T07:27:30.272Z,21.17
2022-08-11T07:28:28.154Z,21.25
2022-08-11T07:29:28.102Z,21.14
2022-08-11T07:30:28.104Z,21.24
2022-08-11T07:31:29.180Z,21.20
2022-08-11T07:32:28.106Z,21.25
2022-08-11T07:34:06.954Z,21.24
2022-08-11T07:34:28.181Z,21.24
2022-08-11T07:35:28.110Z,21.30
2022-08-11T07:36:28.378Z,21.43
2022-08-11T07:37:28.117Z,21.46
2022-08-11T07:38:28.119Z,21.45
2022-08-11T07:39:28.183Z,21.52
2022-08-11T07:40:28.128Z,21.55
2022-08-11T07:41:28.131Z,21.58
2022-08-11T07:42:28.136Z,21.69
2022-08-11T07:43:28.138Z,21.72
2022-08-11T07:44:33.738Z,21.75
2022-08-11T07:45:28.150Z,21.79
2022-08-11T07:46:28.144Z,21.92
2022-08-11T07:47:28.141Z,21.93
2022-08-11T07:48:28.151Z,22.02
2022-08-11T07:49:28.148Z,22.08
2022-08-11T07:50:28.159Z,22.13
2022-08-11T07:51:28.154Z,22.13
2022-08-11T07:52:28.157Z,22.22
2022-08-11T07:53:28.164Z,22.29
2022-08-11T07:54:28.193Z,22.44
2022-08-11T07:55:49.066Z,22.59
2022-08-11T07:56:38.605Z,22.60
2022-08-11T07:58:13.648Z,22.66
2022-08-11T07:58:28.174Z,22.75
2022-08-11T08:00:03.598Z,22.78
2022-08-11T08:00:29.834Z,22.84
2022-08-11T08:01:28.213Z,22.93
2022-08-11T08:02:35.435Z,22.98
2022-08-11T08:03:28.189Z,22.98
2022-08-11T08:04:28.196Z,23.12
2022-08-11T08:05:28.197Z,23.15
2022-08-11T08:06:36.125Z,23.31
2022-08-11T08:07:28.202Z,23.31
2022-08-11T08:08:28.209Z,23.47
2022-08-11T08:09:28.212Z,23.54
2022-08-11T08:10:28.312Z,23.69
2022-08-11T08:11:28.215Z,23.73
2022-08-11T08:12:28.223Z,23.92
2022-08-11T08:13:28.224Z,23.99
2022-08-11T08:14:28.227Z,24.08
2022-08-11T08:15:28.228Z,24.18
2022-08-11T08:16:28.236Z,24.17
2022-08-11T08:17:28.240Z,24.21
2022-08-11T08:18:28.790Z,24.32
2022-08-11T08:19:28.243Z,24.32
2022-08-11T08:20:28.248Z,24.47
2022-08-11T08:21:28.255Z,24.51
2022-08-11T08:22:39.050Z,24.68
2022-08-11T08:23:28.262Z,24.73
2022-08-11T08:24:28.262Z,24.74
2022-08-11T08:25:28.278Z,24.66
2022-08-11T08:26:28.275Z,24.74
2022-08-11T08:27:28.343Z,24.74
2022-08-11T08:28:32.320Z,24.86
2022-08-11T08:29:28.292Z,24.85
2022-08-11T08:30:28.291Z,24.92
2022-08-11T08:31:28.309Z,25.06
2022-08-11T08:32:28.352Z,24.99
2022-08-11T08:33:28.306Z,25.04
2022-08-11T08:34:28.311Z,25.16
2022-08-11T08:35:32.662Z,25.17
2022-08-11T08:36:28.322Z,25.33
2022-08-11T08:37:45.641Z,25.33
2022-08-11T08:38:28.334Z,25.38
2022-08-11T08:39:28.431Z,25.44
2022-08-11T08:40:28.355Z,25.58
2022-08-11T08:41:28.354Z,25.58
2022-08-11T08:42:28.435Z,25.55
2022-08-11T08:43:28.369Z,25.66
2022-08-11T08:44:38.225Z,25.77
2022-08-11T08:45:28.380Z,25.84
2022-08-11T08:46:28.388Z,25.91
2022-08-11T08:47:41.775Z,26.03
2022-08-11T08:48:28.399Z,26.06
2022-08-11T08:49:28.412Z,26.18
2022-08-11T08:50:28.414Z,26.15
2022-08-11T08:51:28.424Z,26.16
2022-08-11T08:52:42.730Z,26.10
2022-08-11T08:53:28.434Z,26.07
2022-08-11T08:54:28.443Z,26.21
2022-08-11T08:55:28.447Z,26.19
2022-08-11T08:56:28.567Z,26.21
2022-08-11T08:57:28.521Z,26.31
2022-08-11T08:58:28.470Z,26.37
2022-08-11T08:59:47.433Z,26.37
2022-08-11T09:00:28.489Z,26.43
2022-08-11T09:01:28.580Z,26.58
2022-08-11T09:02:34.181Z,26.63
2022-08-11T09:04:04.807Z,26.62
2022-08-11T09:04:28.506Z,26.77
2022-08-11T09:05:28.513Z,26.85
2022-08-11T09:06:28.517Z,26.88
2022-08-11T09:07:32.622Z,26.92
2022-08-11T09:08:28.537Z,26.80
2022-08-11T09:09:28.542Z,26.84
2022-08-11T09:10:28.541Z,26.80
2022-08-11T09:11:28.551Z,26.89
2022-08-11T09:12:36.394Z,26.88
2022-08-11T09:13:28.561Z,26.89
2022-08-11T09:14:28.565Z,27.02
2022-08-11T09:15:28.577Z,26.93
2022-08-11T09:16:28.576Z,26.88
2022-08-11T09:17:28.583Z,26.78
2022-08-11T09:18:33.489Z,26.71
2022-08-11T09:19:28.593Z,26.58
2022-08-11T09:20:28.600Z,26.58
2022-08-11T09:21:46.474Z,26.56
2022-08-11T09:22:28.666Z,26.48
2022-08-11T09:24:28.620Z,26.37
2022-08-11T09:25:28.627Z,26.23
2022-08-11T09:26:30.801Z,26.05
2022-08-11T09:27:28.706Z,25.96
2022-08-11T09:28:28.643Z,25.88
2022-08-11T09:29:28.652Z,25.83
2022-08-11T09:30:28.653Z,25.80
2022-08-11T09:31:28.659Z,25.78
2022-08-11T09:32:28.666Z,25.80
2022-08-11T09:33:28.673Z,25.78
2022-08-11T09:34:28.672Z,25.81
2022-08-11T09:35:28.675Z,25.83
2022-08-11T09:36:28.682Z,25.81
2022-08-11T09:37:54.841Z,25.80
2022-08-11T09:38:28.695Z,25.80
2022-08-11T09:39:31.151Z,25.78
2022-08-11T09:40:28.705Z,25.70
2022-08-11T09:41:28.711Z,25.66
2022-08-11T09:42:28.712Z,25.58
2022-08-11T09:43:28.722Z,25.53
2022-08-11T09:44:28.725Z,25.58
2022-08-11T09:45:28.727Z,25.50
2022-08-11T09:46:28.737Z,25.48
2022-08-11T09:47:28.830Z,25.47
2022-08-11T09:48:28.747Z,25.48
2022-08-11T09:49:28.747Z,25.53
2022-08-11T09:50:28.753Z,25.54
2022-08-11T09:51:28.762Z,25.44
2022-08-11T09:52:28.762Z,25.47
2022-08-11T09:53:37.223Z,25.54
2022-08-11T09:54:28.773Z,25.50
2022-08-11T09:55:28.778Z,25.50
2022-08-11T09:56:28.783Z,25.47
2022-08-11T09:57:28.836Z,25.50
2022-08-11T09:58:41.807Z,25.53
2022-08-11T09:59:28.808Z,25.54
2022-08-11T10:00:28.817Z,25.51
2022-08-11T10:01:28.844Z,25.36
2022-08-11T10:02:28.824Z,25.33
2022-08-11T10:03:28.821Z,25.44
2022-08-11T10:04:28.824Z,25.33
2022-08-11T10:05:28.830Z,25.36
2022-08-11T10:06:34.231Z,25.26
2022-08-11T10:07:28.871Z,25.22
2022-08-11T10:08:28.840Z,25.14
2022-08-11T10:09:28.857Z,25.22
2022-08-11T10:10:28.849Z,25.16
2022-08-11T10:11:28.853Z,25.10
2022-08-11T10:12:28.860Z,25.11
2022-08-11T10:14:30.157Z,25.10
2022-08-11T10:14:34.497Z,25.16
2022-08-11T10:15:28.873Z,25.18
2022-08-11T10:16:28.875Z,25.17
2022-08-11T10:17:28.907Z,25.17
2022-08-11T10:18:28.883Z,25.18
2022-08-11T10:19:28.889Z,25.26
2022-08-11T10:20:28.894Z,25.35
2022-08-11T10:21:28.897Z,25.47
2022-08-11T10:22:28.905Z,25.47
2022-08-11T10:23:28.908Z,25.50
2022-08-11T10:24:28.915Z,25.54
2022-08-11T10:25:28.922Z,25.58
2022-08-11T10:26:28.923Z,25.59
2022-08-11T10:28:17.766Z,25.62
2022-08-11T10:28:44.680Z,25.73
2022-08-11T10:29:32.192Z,25.81
2022-08-11T10:30:28.942Z,25.95
2022-08-11T10:31:30.507Z,25.99
2022-08-11T10:32:31.443Z,26.15
2022-08-11T10:33:36.495Z,26.19
2022-08-11T10:34:29.268Z,26.31
2022-08-11T10:35:28.967Z,26.33
2022-08-11T10:36:28.969Z,26.29
2022-08-11T10:38:07.753Z,26.33
2022-08-11T10:38:28.979Z,26.29
2022-08-11T10:39:29.038Z,26.29
2022-08-11T10:40:28.989Z,26.26
2022-08-11T10:41:28.993Z,26.22
2022-08-11T10:42:47.737Z,26.16
2022-08-11T10:44:01.458Z,26.18
2022-08-11T10:44:29.008Z,26.06
2022-08-11T10:45:29.009Z,26.05
2022-08-11T10:46:30.261Z,26.02
2022-08-11T10:47:29.133Z,25.93
2022-08-11T10:48:29.036Z,25.98
2022-08-11T10:49:29.036Z,25.91
2022-08-11T10:50:29.038Z,25.87
2022-08-11T10:51:50.123Z,25.91
2022-08-11T10:52:29.137Z,25.88
2022-08-11T10:53:29.054Z,26.06
2022-08-11T10:54:29.053Z,26.16
2022-08-11T10:55:29.061Z,26.21
2022-08-11T10:56:29.061Z,26.34
2022-08-11T10:57:29.131Z,26.43
2022-08-11T10:58:29.074Z,26.44
2022-08-11T10:59:29.077Z,26.51
2022-08-11T11:00:29.085Z,26.52
2022-08-11T11:01:29.142Z,26.53
2022-08-11T11:02:29.090Z,26.45
2022-08-11T11:03:29.099Z,26.51
2022-08-11T11:04:29.101Z,26.47
2022-08-11T11:05:29.112Z,26.48
2022-08-11T11:06:29.974Z,26.52
2022-08-11T11:07:29.189Z,26.48
2022-08-11T11:08:29.118Z,26.48
2022-08-11T11:09:29.124Z,26.43
2022-08-11T11:10:29.127Z,26.41
2022-08-11T11:11:29.147Z,26.43
2022-08-11T11:12:29.188Z,26.29
2022-08-11T11:13:29.147Z,26.33
2022-08-11T11:14:29.149Z,26.36
2022-08-11T11:15:29.155Z,26.29
2022-08-11T11:16:29.163Z,26.29
2022-08-11T11:17:29.167Z,26.23
2022-08-11T11:18:29.176Z,26.19
2022-08-11T11:19:29.179Z,26.19
2022-08-11T11:20:35.929Z,26.43
2022-08-11T11:21:29.185Z,26.38
2022-08-11T11:22:29.216Z,26.55
2022-08-11T11:23:29.198Z,26.66
2022-08-11T11:24:29.197Z,26.73
2022-08-11T11:25:29.204Z,26.73
2022-08-11T11:26:29.208Z,26.71
2022-08-11T11:27:29.213Z,26.70
2022-08-11T11:28:29.216Z,26.73
2022-08-11T11:29:29.228Z,26.68
2022-08-11T11:30:29.229Z,26.65
2022-08-11T11:31:29.228Z,26.68
2022-08-11T11:32:29.323Z,26.60
2022-08-11T11:33:29.239Z,26.62
2022-08-11T11:34:29.249Z,26.55
2022-08-11T11:35:29.252Z,26.55
2022-08-11T11:36:29.253Z,26.53
2022-08-11T11:37:29.267Z,26.58
2022-08-11T11:38:29.263Z,26.56
2022-08-11T11:39:29.306Z,26.58
2022-08-11T11:40:31.630Z,26.60
2022-08-11T11:41:29.279Z,26.51
2022-08-11T11:42:29.295Z,26.48
2022-08-11T11:43:29.287Z,26.58
2022-08-11T11:44:29.299Z,26.75
2022-08-11T11:45:29.303Z,26.80
2022-08-11T11:46:30.283Z,26.89
2022-08-11T11:47:29.321Z,26.99
2022-08-11T11:48:29.312Z,27.07
2022-08-11T11:49:29.326Z,27.11
2022-08-11T11:50:31.560Z,27.14
2022-08-11T11:51:29.329Z,27.17
2022-08-11T11:52:29.362Z,27.07
2022-08-11T11:53:29.339Z,27.07
2022-08-11T11:54:29.342Z,26.99
2022-08-11T11:55:29.351Z,26.80
2022-08-11T11:56:29.349Z,26.70
2022-08-11T11:57:29.518Z,26.68
2022-08-11T11:58:29.358Z,26.56
2022-08-11T11:59:29.368Z,26.58
2022-08-11T12:00:32.963Z,26.47
2022-08-11T12:01:29.376Z,26.44
2022-08-11T12:02:29.379Z,26.37
2022-08-11T12:03:29.453Z,26.40
2022-08-11T12:04:29.388Z,26.44
2022-08-11T12:05:29.393Z,26.60
2022-08-11T12:06:29.399Z,26.65
2022-08-11T12:07:29.493Z,26.62
2022-08-11T12:08:29.406Z,26.58
2022-08-11T12:09:29.412Z,26.55
2022-08-11T12:10:29.415Z,26.51
2022-08-11T12:11:29.434Z,26.55
2022-08-11T12:12:29.426Z,26.55
2022-08-11T12:13:29.434Z,26.43
2022-08-11T12:14:29.435Z,26.44
2022-08-11T12:16:04.197Z,26.45
2022-08-11T12:16:35.624Z,26.38
2022-08-11T12:17:29.459Z,26.40
2022-08-11T12:18:29.456Z,26.38
2022-08-11T12:19:29.467Z,26.43
2022-08-11T12:20:30.937Z,26.37
2022-08-11T12:21:29.471Z,26.38
2022-08-11T12:22:29.500Z,26.33
2022-08-11T12:23:29.482Z,26.37
2022-08-11T12:24:29.807Z,26.45
2022-08-11T12:25:29.492Z,26.45
2022-08-11T12:26:29.497Z,26.43
2022-08-11T12:27:29.535Z,26.41
2022-08-11T12:28:29.505Z,26.41
2022-08-11T12:29:29.513Z,26.44
2022-08-11T12:30:29.639Z,26.37
2022-08-11T12:31:29.530Z,26.37
2022-08-11T12:32:29.632Z,26.31
2022-08-11T12:33:29.535Z,26.41
2022-08-11T12:34:29.534Z,26.47
2022-08-11T12:35:29.538Z,26.52
2022-08-11T12:36:29.549Z,26.59
2022-08-11T12:37:29.618Z,26.63
2022-08-11T12:38:29.887Z,26.75
2022-08-11T12:40:15.743Z,26.93
2022-08-11T12:40:43.607Z,27.00
2022-08-11T12:41:29.627Z,26.93
2022-08-11T12:42:29.578Z,27.00
2022-08-11T12:43:37.371Z,26.95
2022-08-11T12:44:29.594Z,26.97
2022-08-11T12:45:29.596Z,26.90
2022-08-11T12:46:29.593Z,26.78
2022-08-11T12:47:29.674Z,26.74
2022-08-11T12:48:57.655Z,26.71
2022-08-11T12:49:29.609Z,26.66
2022-08-11T12:50:29.616Z,26.63
2022-08-11T12:51:29.618Z,26.52
2022-08-11T12:52:29.625Z,26.47
2022-08-11T12:53:29.630Z,26.45
2022-08-11T12:54:29.634Z,26.38
2022-08-11T12:55:29.640Z,26.36
2022-08-11T12:56:29.645Z,26.34
2022-08-11T12:57:37.074Z,26.33
2022-08-11T12:58:29.663Z,26.29
2022-08-11T12:59:29.663Z,26.29
2022-08-11T13:00:29.668Z,26.23
2022-08-11T13:01:29.769Z,26.26
2022-08-11T13:02:29.681Z,26.29
2022-08-11T13:03:29.676Z,26.28
2022-08-11T13:04:29.685Z,26.21
2022-08-11T13:05:29.687Z,26.25
2022-08-11T13:06:29.694Z,26.15
2022-08-11T13:07:49.871Z,26.21
2022-08-11T13:08:29.823Z,26.16
2022-08-11T13:09:29.709Z,26.43
2022-08-11T13:10:29.717Z,26.80
2022-08-11T13:11:55.991Z,27.07
2022-08-11T13:12:29.842Z,27.21
2022-08-11T13:13:55.785Z,27.49
2022-08-11T13:14:29.743Z,27.58
2022-08-11T13:15:29.746Z,27.59
2022-08-11T13:16:29.743Z,27.59
2022-08-11T13:17:44.145Z,27.47
2022-08-11T13:18:29.756Z,27.36
2022-08-11T13:19:29.756Z,27.26
2022-08-11T13:20:29.764Z,27.25
2022-08-11T13:21:29.767Z,27.15
2022-08-11T13:22:29.851Z,27.03
2022-08-11T13:23:29.775Z,27.05
2022-08-11T13:24:29.784Z,27.18
2022-08-11T13:25:29.788Z,27.20
2022-08-11T13:26:47.394Z,27.17
2022-08-11T13:27:29.797Z,27.15
2022-08-11T13:28:29.802Z,27.33
2022-08-11T13:29:29.809Z,27.45
2022-08-11T13:30:29.813Z,27.48
2022-08-11T13:31:29.815Z,27.48
2022-08-11T13:32:29.825Z,27.58
2022-08-11T13:33:29.828Z,27.60
2022-08-11T13:34:29.835Z,27.67
2022-08-11T13:35:29.840Z,27.67
2022-08-11T13:36:29.852Z,27.68
2022-08-11T13:38:19.106Z,27.59
2022-08-11T13:38:30.029Z,27.65
2022-08-11T13:39:30.385Z,27.67
2022-08-11T13:40:45.868Z,27.65
2022-08-11T13:41:29.866Z,27.64
2022-08-11T13:42:29.872Z,27.73
2022-08-11T13:43:29.879Z,27.58
2022-08-11T13:44:29.911Z,27.55
2022-08-11T13:45:29.888Z,27.49
2022-08-11T13:46:29.894Z,27.42
2022-08-11T13:47:29.966Z,27.37
2022-08-11T13:48:29.907Z,27.22
2022-08-11T13:49:29.909Z,27.15
2022-08-11T13:50:29.916Z,27.05
2022-08-11T13:51:34.144Z,26.96
2022-08-11T13:52:29.923Z,26.90
2022-08-11T13:53:29.928Z,26.80
2022-08-11T13:54:29.932Z,26.83
2022-08-11T13:55:33.241Z,26.73
2022-08-11T13:56:29.952Z,26.75
2022-08-11T13:58:08.583Z,26.71
2022-08-11T13:58:39.700Z,26.71
2022-08-11T13:59:31.030Z,26.74
2022-08-11T14:00:29.974Z,26.71
2022-08-11T14:02:20.564Z,26.71
2022-08-11T14:02:30.856Z,26.71
2022-08-11T14:04:28.758Z,26.63
2022-08-11T14:04:32.290Z,26.59
2022-08-11T14:05:29.994Z,26.60
2022-08-11T14:06:29.997Z,26.70
2022-08-11T14:07:30.092Z,26.81
2022-08-11T14:08:37.072Z,26.96
2022-08-11T14:09:30.012Z,27.05
2022-08-11T14:10:30.039Z,27.03
2022-08-11T14:12:23.022Z,27.10
2022-08-11T14:12:30.028Z,27.05
2022-08-11T14:13:42.689Z,27.18
2022-08-11T14:14:30.038Z,27.37
2022-08-11T14:15:30.039Z,27.48
2022-08-11T14:16:30.087Z,27.52
2022-08-11T14:17:47.293Z,27.49
2022-08-11T14:18:30.062Z,27.42
2022-08-11T14:19:30.063Z,27.44
2022-08-11T14:20:38.693Z,27.37
2022-08-11T14:21:30.072Z,27.37
2022-08-11T14:22:30.079Z,27.21
2022-08-11T14:23:30.083Z,27.22
2022-08-11T14:24:30.089Z,27.20
2022-08-11T14:26:00.008Z,27.22
2022-08-11T14:26:30.100Z,27.22
2022-08-11T14:28:22.137Z,27.21
2022-08-11T14:28:34.462Z,27.18
2022-08-11T14:29:30.114Z,27.20
2022-08-11T14:30:30.128Z,27.17